createdAt,value
2023-06-27T00:00:13.122Z,39.06
2023-06-27T00:01:12.952Z,39.07
2023-06-27T00:02:13.015Z,39.08
2023-06-27T00:03:19.380Z,39.09
2023-06-27T00:04:12.913Z,39.10
2023-06-27T00:05:12.862Z,39.10
2023-06-27T00:06:13.044Z,39.10
2023-06-27T00:07:13.176Z,39.09
2023-06-27T00:08:12.908Z,39.08
2023-06-27T00:09:19.129Z,39.11
2023-06-27T00:10:12.924Z,39.10
2023-06-27T00:11:12.831Z,39.11
2023-06-27T00:12:12.945Z,39.11
2023-06-27T00:13:13.872Z,39.10
2023-06-27T00:14:19.452Z,39.08
2023-06-27T00:15:12.745Z,39.07
2023-06-27T00:16:12.760Z,39.06
2023-06-27T00:17:12.876Z,39.05
2023-06-27T00:18:12.747Z,39.05
2023-06-27T00:19:19.288Z,39.08
2023-06-27T00:20:12.863Z,39.05
2023-06-27T00:21:13.361Z,39.04
2023-06-27T00:22:12.829Z,39.05
2023-06-27T00:23:12.709Z,39.05
2023-06-27T00:24:18.906Z,39.06
2023-06-27T00:25:12.686Z,39.08
2023-06-27T00:26:12.622Z,39.09
2023-06-27T00:27:12.685Z,39.08
2023-06-27T00:28:12.591Z,39.09
2023-06-27T00:29:12.594Z,39.08
2023-06-27T00:30:18.902Z,39.09
2023-06-27T00:31:12.632Z,39.10
2023-06-27T00:32:12.564Z,39.11
2023-06-27T00:33:12.527Z,39.10
2023-06-27T00:34:12.539Z,39.10
2023-06-27T00:35:18.832Z,39.09
2023-06-27T00:36:12.480Z,39.10
2023-06-27T00:37:12.505Z,39.12
2023-06-27T00:38:12.481Z,39.12
2023-06-27T00:39:12.621Z,39.11
2023-06-27T00:40:12.485Z,39.09
2023-06-27T00:41:18.793Z,39.08
2023-06-27T00:42:12.457Z,39.10
2023-06-27T00:43:12.458Z,39.09
2023-06-27T00:44:12.472Z,39.09
2023-06-27T00:45:12.369Z,39.08
2023-06-27T00:46:12.355Z,39.09
2023-06-27T00:47:18.717Z,39.09
2023-06-27T00:48:12.326Z,39.10
2023-06-27T00:49:12.391Z,39.09
2023-06-27T00:50:14.043Z,39.07
2023-06-27T00:51:12.508Z,39.05
2023-06-27T00:52:18.580Z,39.05
2023-06-27T00:53:12.281Z,39.07
2023-06-27T00:54:12.310Z,39.06
2023-06-27T00:55:12.278Z,39.05
2023-06-27T00:56:12.301Z,39.06
2023-06-27T00:57:13.272Z,39.02
2023-06-27T00:58:18.528Z,39.02
2023-06-27T00:59:12.309Z,39.01
2023-06-27T01:00:12.304Z,39.02
2023-06-27T01:01:12.290Z,39.01
2023-06-27T01:02:12.214Z,39.03
2023-06-27T01:03:18.629Z,39.05
2023-06-27T01:04:13.243Z,39.05
2023-06-27T01:05:12.226Z,39.04
2023-06-27T01:06:12.230Z,39.03
2023-06-27T01:07:12.342Z,39.02
2023-06-27T01:08:18.343Z,39.03
2023-06-27T01:09:12.147Z,39.03
2023-06-27T01:10:12.138Z,39.03
2023-06-27T01:11:12.086Z,39.05
2023-06-27T01:12:12.772Z,39.05
2023-06-27T01:13:12.082Z,39.06
2023-06-27T01:14:18.392Z,39.06
2023-06-27T01:15:12.105Z,39.06
2023-06-27T01:16:12.157Z,39.06
2023-06-27T01:17:12.103Z,39.06
2023-06-27T01:18:12.045Z,39.05
2023-06-27T01:19:12.012Z,39.05
2023-06-27T01:20:18.382Z,39.06
2023-06-27T01:21:11.926Z,39.03
2023-06-27T01:22:12.017Z,39.04
2023-06-27T01:23:11.908Z,39.02
2023-06-27T01:24:12.164Z,39.01
2023-06-27T01:25:18.225Z,39.03
2023-06-27T01:26:12.028Z,39.04
2023-06-27T01:27:11.929Z,39.03
2023-06-27T01:28:11.903Z,39.04
2023-06-27T01:29:11.963Z,39.04
2023-06-27T01:30:11.904Z,39.07
2023-06-27T01:31:18.180Z,39.07
2023-06-27T01:32:11.805Z,39.06
2023-06-27T01:33:11.958Z,39.05
2023-06-27T01:34:12.804Z,39.07
2023-06-27T01:35:11.883Z,39.07
2023-06-27T01:36:11.812Z,39.08
2023-06-27T01:37:18.086Z,39.09
2023-06-27T01:38:11.720Z,39.07
2023-06-27T01:39:11.774Z,39.06
2023-06-27T01:40:11.865Z,39.05
2023-06-27T01:41:11.766Z,39.06
2023-06-27T01:42:11.840Z,39.05
2023-06-27T01:43:18.060Z,39.03
2023-06-27T01:44:11.716Z,39.04
2023-06-27T01:45:11.795Z,39.05
2023-06-27T01:46:11.819Z,39.05
2023-06-27T01:47:12.324Z,39.05
2023-06-27T01:48:18.059Z,39.07
2023-06-27T01:49:11.632Z,39.08
2023-06-27T01:50:11.669Z,39.07
2023-06-27T01:51:11.556Z,39.04
2023-06-27T01:52:11.526Z,39.06
2023-06-27T01:53:11.545Z,39.08
2023-06-27T01:54:17.973Z,39.08
2023-06-27T01:55:11.556Z,39.07
2023-06-27T01:56:12.147Z,39.06
2023-06-27T01:57:11.610Z,39.05
2023-06-27T01:58:11.455Z,39.06
2023-06-27T01:59:11.478Z,39.07
2023-06-27T02:00:17.818Z,39.04
2023-06-27T02:01:11.648Z,39.03
2023-06-27T02:02:11.531Z,39.03
2023-06-27T02:03:11.517Z,39.02
2023-06-27T02:04:11.505Z,39.03
2023-06-27T02:05:17.761Z,39.04
2023-06-27T02:06:11.469Z,39.04
2023-06-27T02:07:11.625Z,39.05
2023-06-27T02:08:11.426Z,39.05
2023-06-27T02:09:11.423Z,39.05
2023-06-27T02:10:11.328Z,39.06
2023-06-27T02:11:17.692Z,39.06
2023-06-27T02:12:11.268Z,39.05
2023-06-27T02:13:11.449Z,39.07
2023-06-27T02:14:11.261Z,39.08
2023-06-27T02:15:11.418Z,39.07
2023-06-27T02:16:11.201Z,39.08
2023-06-27T02:17:17.660Z,39.10
2023-06-27T02:18:11.253Z,39.09
2023-06-27T02:19:11.210Z,39.08
2023-06-27T02:20:11.189Z,39.08
2023-06-27T02:21:11.351Z,39.07
2023-06-27T02:22:11.139Z,39.07
2023-06-27T02:23:17.598Z,39.05
2023-06-27T02:24:11.183Z,39.04
2023-06-27T02:25:11.141Z,39.03
2023-06-27T02:26:11.168Z,39.04
2023-06-27T02:27:11.352Z,39.05
2023-06-27T02:28:11.269Z,39.06
2023-06-27T02:29:17.434Z,39.02
2023-06-27T02:30:11.132Z,39.00
2023-06-27T02:31:11.173Z,39.00
2023-06-27T02:32:11.050Z,39.00
2023-06-27T02:33:11.043Z,39.00
2023-06-27T02:34:18.459Z,38.99
2023-06-27T02:35:11.082Z,38.96
2023-06-27T02:36:11.342Z,38.94
2023-06-27T02:37:11.043Z,38.95
2023-06-27T02:38:11.121Z,38.96
2023-06-27T02:39:17.252Z,38.96
2023-06-27T02:40:11.193Z,38.93
2023-06-27T02:41:11.273Z,38.93
2023-06-27T02:42:11.908Z,38.93
2023-06-27T02:43:11.059Z,38.91
2023-06-27T02:44:17.323Z,38.91
2023-06-27T02:45:10.909Z,38.90
2023-06-27T02:46:11.089Z,38.88
2023-06-27T02:47:10.860Z,38.85
2023-06-27T02:48:10.830Z,38.85
2023-06-27T02:49:17.239Z,38.86
2023-06-27T02:50:10.858Z,38.84
2023-06-27T02:51:10.944Z,38.85
2023-06-27T02:52:10.874Z,38.86
2023-06-27T02:53:10.945Z,38.86
2023-06-27T02:54:10.761Z,38.84
2023-06-27T02:56:09.891Z,38.42
2023-06-27T02:57:08.864Z,38.92
2023-06-27T02:58:08.847Z,39.05
2023-06-27T02:59:08.899Z,39.10
2023-06-27T03:00:08.812Z,39.08
2023-06-27T03:01:15.093Z,39.04
2023-06-27T03:02:08.836Z,38.99
2023-06-27T03:03:09.865Z,38.96
2023-06-27T03:04:19.317Z,38.95
2023-06-27T03:05:10.242Z,38.92
2023-06-27T03:06:14.983Z,38.89
2023-06-27T03:07:08.783Z,38.85
2023-06-27T03:08:08.689Z,38.85
2023-06-27T03:09:08.678Z,38.82
2023-06-27T03:10:08.770Z,38.80
2023-06-27T03:11:14.932Z,38.76
2023-06-27T03:12:08.659Z,38.76
2023-06-27T03:13:08.640Z,38.75
2023-06-27T03:14:08.644Z,38.77
2023-06-27T03:15:08.677Z,38.76
2023-06-27T03:16:08.633Z,38.73
2023-06-27T03:17:15.794Z,38.71
2023-06-27T03:18:08.571Z,38.69
2023-06-27T03:19:08.532Z,38.68
2023-06-27T03:20:08.598Z,38.68
2023-06-27T03:21:08.566Z,38.68
2023-06-27T03:22:14.765Z,38.66
2023-06-27T03:23:09.433Z,38.65
2023-06-27T03:24:08.492Z,38.63
2023-06-27T03:25:11.538Z,38.64
2023-06-27T03:26:08.487Z,38.62
2023-06-27T03:27:08.497Z,38.61
2023-06-27T03:28:15.604Z,38.59
2023-06-27T03:29:08.455Z,38.57
2023-06-27T03:30:09.196Z,38.54
2023-06-27T03:31:09.049Z,38.52
2023-06-27T03:32:09.367Z,38.51
2023-06-27T03:33:08.520Z,38.50
2023-06-27T03:34:15.577Z,38.49
2023-06-27T03:35:09.316Z,38.50
2023-06-27T03:36:10.369Z,38.51
2023-06-27T03:37:08.369Z,38.53
2023-06-27T03:38:09.251Z,38.51
2023-06-27T03:39:08.947Z,38.53
2023-06-27T03:40:15.364Z,38.52
2023-06-27T03:41:09.242Z,38.51
2023-06-27T03:42:08.347Z,38.52
2023-06-27T03:43:08.283Z,38.51
2023-06-27T03:44:09.248Z,38.50
2023-06-27T03:45:09.184Z,38.49
2023-06-27T03:46:15.448Z,38.48
2023-06-27T03:47:09.153Z,38.45
2023-06-27T03:48:08.264Z,38.41
2023-06-27T03:49:09.152Z,38.39
2023-06-27T03:50:09.112Z,38.37
2023-06-27T03:51:09.108Z,38.37
2023-06-27T03:52:15.335Z,38.36
2023-06-27T03:53:09.159Z,38.38
2023-06-27T03:54:09.035Z,38.37
2023-06-27T03:55:09.036Z,38.38
2023-06-27T03:56:09.035Z,38.40
2023-06-27T03:57:09.025Z,38.38
2023-06-27T03:58:15.354Z,38.37
2023-06-27T03:59:09.035Z,38.37
2023-06-27T04:00:09.014Z,38.34
2023-06-27T04:01:08.955Z,38.30
2023-06-27T04:02:08.958Z,38.27
2023-06-27T04:03:15.310Z,38.27
2023-06-27T04:04:09.922Z,38.29
2023-06-27T04:05:08.183Z,38.29
2023-06-27T04:06:08.912Z,38.31
2023-06-27T04:07:08.947Z,38.31
2023-06-27T04:08:07.958Z,38.31
2023-06-27T04:09:15.114Z,38.29
2023-06-27T04:10:08.879Z,38.29
2023-06-27T04:11:08.827Z,38.28
2023-06-27T04:12:08.828Z,38.26
2023-06-27T04:13:07.853Z,38.24
2023-06-27T04:14:15.039Z,38.21
2023-06-27T04:15:08.848Z,38.21
2023-06-27T04:16:08.779Z,38.20
2023-06-27T04:17:08.784Z,38.19
2023-06-27T04:18:07.860Z,38.21
2023-06-27T04:19:08.758Z,38.20
2023-06-27T04:20:14.990Z,38.19
2023-06-27T04:21:08.691Z,38.20
2023-06-27T04:22:08.725Z,38.18
2023-06-27T04:23:07.736Z,38.19
2023-06-27T04:24:08.675Z,38.22
2023-06-27T04:25:07.683Z,38.21
2023-06-27T04:26:14.003Z,38.19
2023-06-27T04:27:08.632Z,38.19
2023-06-27T04:28:08.603Z,38.20
2023-06-27T04:29:08.599Z,38.19
2023-06-27T04:30:08.575Z,38.18
2023-06-27T04:31:07.677Z,38.17
2023-06-27T04:32:14.793Z,38.14
2023-06-27T04:33:08.579Z,38.15
2023-06-27T04:34:08.550Z,38.12
2023-06-27T04:35:08.516Z,38.11
2023-06-27T04:36:08.561Z,38.10
2023-06-27T04:37:08.518Z,38.09
2023-06-27T04:38:14.767Z,38.09
2023-06-27T04:39:08.467Z,38.10
2023-06-27T04:40:08.471Z,38.08
2023-06-27T04:41:07.540Z,38.07
2023-06-27T04:42:08.447Z,38.07
2023-06-27T04:43:08.395Z,38.06
2023-06-27T04:44:14.660Z,38.05
2023-06-27T04:45:08.377Z,38.04
2023-06-27T04:46:07.491Z,38.05
2023-06-27T04:47:08.478Z,38.03
2023-06-27T04:48:08.394Z,38.02
2023-06-27T04:49:08.388Z,38.01
2023-06-27T04:50:14.631Z,38.00
2023-06-27T04:51:07.332Z,37.99
2023-06-27T04:52:07.355Z,37.98
2023-06-27T04:53:08.334Z,37.98
2023-06-27T04:54:09.246Z,37.98
2023-06-27T04:55:08.270Z,37.98
2023-06-27T04:56:14.530Z,37.97
2023-06-27T04:57:13.076Z,37.98
2023-06-27T04:58:08.770Z,37.97
2023-06-27T04:59:07.359Z,37.97
2023-06-27T05:00:08.174Z,37.97
2023-06-27T05:01:14.532Z,37.97
2023-06-27T05:02:08.162Z,37.97
2023-06-27T05:03:08.159Z,37.95
2023-06-27T05:04:08.203Z,37.95
2023-06-27T05:05:08.158Z,37.94
2023-06-27T05:06:14.349Z,37.93
2023-06-27T05:07:08.142Z,37.95
2023-06-27T05:08:08.100Z,37.95
2023-06-27T05:09:08.100Z,37.94
2023-06-27T05:10:08.078Z,37.92
2023-06-27T05:11:08.029Z,37.90
2023-06-27T05:12:14.330Z,37.91
2023-06-27T05:13:08.030Z,37.90
2023-06-27T05:14:08.025Z,37.90
2023-06-27T05:15:08.080Z,37.89
2023-06-27T05:16:07.978Z,37.91
2023-06-27T05:17:07.978Z,37.90
2023-06-27T05:18:14.217Z,37.88
2023-06-27T05:19:07.957Z,37.87
2023-06-27T05:20:07.908Z,37.84
2023-06-27T05:21:08.028Z,37.82
2023-06-27T05:22:07.907Z,37.81
2023-06-27T05:23:07.892Z,37.82
2023-06-27T05:24:14.125Z,37.82
2023-06-27T05:25:06.927Z,37.82
2023-06-27T05:26:07.847Z,37.81
2023-06-27T05:27:07.822Z,37.81
2023-06-27T05:28:07.901Z,37.81
2023-06-27T05:29:14.035Z,37.80
2023-06-27T05:30:07.815Z,37.82
2023-06-27T05:31:07.869Z,37.80
2023-06-27T05:32:07.755Z,37.77
2023-06-27T05:33:07.948Z,37.77
2023-06-27T05:34:14.038Z,37.77
2023-06-27T05:35:07.736Z,37.77
2023-06-27T05:36:07.966Z,37.79
2023-06-27T05:37:07.699Z,37.79
2023-06-27T05:38:07.717Z,37.79
2023-06-27T05:39:07.691Z,37.80
2023-06-27T05:40:13.897Z,37.80
2023-06-27T05:41:07.742Z,37.78
2023-06-27T05:42:07.652Z,37.78
2023-06-27T05:43:07.638Z,37.79
2023-06-27T05:44:07.614Z,37.75
2023-06-27T05:45:07.611Z,37.72
2023-06-27T05:46:13.844Z,37.72
2023-06-27T05:47:07.539Z,37.74
2023-06-27T05:48:07.683Z,37.73
2023-06-27T05:49:07.557Z,37.73
2023-06-27T05:50:07.528Z,37.74
2023-06-27T05:51:07.566Z,37.72
2023-06-27T05:52:13.793Z,37.72
2023-06-27T05:53:07.475Z,37.74
2023-06-27T05:54:07.481Z,37.76
2023-06-27T05:55:07.495Z,37.75
2023-06-27T05:56:07.605Z,37.75
2023-06-27T05:57:07.442Z,37.75
2023-06-27T05:58:13.754Z,37.77
2023-06-27T05:59:07.427Z,37.75
2023-06-27T06:00:07.441Z,37.71
2023-06-27T06:01:07.432Z,37.71
2023-06-27T06:02:07.438Z,37.69
2023-06-27T06:03:07.358Z,37.63
2023-06-27T06:04:13.667Z,37.62
2023-06-27T06:05:07.324Z,37.60
2023-06-27T06:06:07.357Z,37.60
2023-06-27T06:07:07.419Z,37.58
2023-06-27T06:08:07.317Z,37.54
2023-06-27T06:09:13.566Z,37.53
2023-06-27T06:10:07.294Z,37.47
2023-06-27T06:11:07.278Z,37.46
2023-06-27T06:12:07.277Z,37.43
2023-06-27T06:13:07.222Z,37.38
2023-06-27T06:14:13.497Z,37.36
2023-06-27T06:15:07.274Z,37.27
2023-06-27T06:16:07.189Z,37.17
2023-06-27T06:17:07.206Z,37.21
2023-06-27T06:18:07.218Z,37.25
2023-06-27T06:19:07.219Z,37.23
2023-06-27T06:20:13.396Z,37.12
2023-06-27T06:21:07.168Z,37.16
2023-06-27T06:22:07.121Z,37.16
2023-06-27T06:23:07.095Z,37.14
2023-06-27T06:24:07.120Z,37.20
2023-06-27T06:25:06.116Z,37.30
2023-06-27T06:26:13.279Z,37.32
2023-06-27T06:27:07.070Z,37.32
2023-06-27T06:28:07.054Z,37.35
2023-06-27T06:29:07.031Z,37.39
2023-06-27T06:30:07.005Z,37.42
2023-06-27T06:31:13.330Z,37.41
2023-06-27T06:32:06.078Z,37.32
2023-06-27T06:33:06.896Z,37.27
2023-06-27T06:34:06.988Z,37.25
2023-06-27T06:35:06.970Z,37.18
2023-06-27T06:36:06.970Z,37.09
2023-06-27T06:37:13.208Z,36.99
2023-06-27T06:38:09.951Z,36.89
2023-06-27T06:39:06.918Z,36.84
2023-06-27T06:40:06.861Z,36.93
2023-06-27T06:41:07.014Z,36.89
2023-06-27T06:42:13.166Z,36.82
2023-06-27T06:43:06.840Z,36.77
2023-06-27T06:44:06.861Z,36.79
2023-06-27T06:45:06.853Z,36.85
2023-06-27T06:46:06.822Z,36.84
2023-06-27T06:47:06.807Z,36.74
2023-06-27T06:48:13.071Z,36.74
2023-06-27T06:49:07.013Z,36.61
2023-06-27T06:50:06.770Z,36.52
2023-06-27T06:51:05.786Z,36.50
2023-06-27T06:52:06.727Z,36.58
2023-06-27T06:53:12.952Z,36.65
2023-06-27T06:54:06.752Z,36.72
2023-06-27T06:55:06.672Z,36.85
2023-06-27T06:56:06.719Z,36.95
2023-06-27T06:57:08.141Z,36.93
2023-06-27T06:58:12.893Z,36.87
2023-06-27T06:59:06.640Z,36.82
2023-06-27T07:00:06.632Z,36.79
2023-06-27T07:01:06.637Z,36.75
2023-06-27T07:02:06.592Z,36.64
2023-06-27T07:03:06.837Z,36.62
2023-06-27T07:04:12.867Z,36.61
2023-06-27T07:05:06.596Z,36.61
2023-06-27T07:06:06.572Z,36.61
2023-06-27T07:07:06.572Z,36.63
2023-06-27T07:08:06.521Z,36.56
2023-06-27T07:09:06.491Z,36.54
2023-06-27T07:10:11.788Z,36.66
2023-06-27T07:11:06.490Z,36.80
2023-06-27T07:12:06.470Z,36.93
2023-06-27T07:13:06.496Z,36.92
2023-06-27T07:14:05.506Z,36.90
2023-06-27T07:15:06.468Z,36.87
2023-06-27T07:16:12.659Z,36.86
2023-06-27T07:17:06.433Z,36.80
2023-06-27T07:18:06.438Z,36.72
2023-06-27T07:19:06.397Z,36.60
2023-06-27T07:20:06.422Z,36.52
2023-06-27T07:21:06.433Z,36.37
2023-06-27T07:22:11.617Z,36.20
2023-06-27T07:23:06.338Z,36.18
2023-06-27T07:24:06.329Z,36.28
2023-06-27T07:25:05.360Z,36.43
2023-06-27T07:26:05.357Z,36.42
2023-06-27T07:27:06.323Z,36.38
2023-06-27T07:28:12.562Z,36.43
2023-06-27T07:29:05.316Z,36.47
2023-06-27T07:30:06.258Z,36.41
2023-06-27T07:31:06.265Z,36.30
2023-06-27T07:32:06.225Z,36.14
2023-06-27T07:33:06.258Z,35.83
2023-06-27T07:34:12.509Z,35.78
2023-06-27T07:35:06.152Z,35.81
2023-06-27T07:36:06.273Z,35.87
2023-06-27T07:37:06.172Z,35.86
2023-06-27T07:38:06.233Z,35.83
2023-06-27T07:39:12.372Z,35.86
2023-06-27T07:40:06.124Z,35.92
2023-06-27T07:41:05.209Z,36.04
2023-06-27T07:42:06.083Z,36.16
2023-06-27T07:43:06.044Z,36.19
2023-06-27T07:44:12.377Z,36.22
2023-06-27T07:45:06.148Z,36.16
2023-06-27T07:46:07.692Z,36.18
2023-06-27T07:47:06.064Z,36.21
2023-06-27T07:48:06.093Z,36.12
2023-06-27T07:49:05.987Z,36.12
2023-06-27T07:50:12.269Z,36.16
2023-06-27T07:51:05.962Z,36.22
2023-06-27T07:52:05.014Z,36.17
2023-06-27T07:53:05.035Z,35.90
2023-06-27T07:54:04.997Z,35.66
2023-06-27T07:55:04.986Z,35.52
2023-06-27T07:56:11.213Z,35.33
2023-06-27T07:57:04.932Z,35.23
2023-06-27T07:58:04.928Z,35.35
2023-06-27T07:59:05.914Z,35.73
2023-06-27T08:00:04.887Z,36.00
2023-06-27T08:01:05.847Z,36.16
2023-06-27T08:02:12.131Z,36.07
2023-06-27T08:03:06.002Z,36.00
2023-06-27T08:04:05.887Z,36.16
2023-06-27T08:05:05.818Z,36.20
2023-06-27T08:06:06.019Z,36.02
2023-06-27T08:07:05.790Z,35.72
2023-06-27T08:08:11.997Z,35.76
2023-06-27T08:09:04.761Z,35.58
2023-06-27T08:10:05.716Z,35.42
2023-06-27T08:11:05.758Z,35.28
2023-06-27T08:12:05.704Z,35.15
2023-06-27T08:13:11.978Z,35.00
2023-06-27T08:14:05.710Z,34.79
2023-06-27T08:15:05.655Z,34.64
2023-06-27T08:16:05.628Z,34.58
2023-06-27T08:17:04.727Z,34.58
2023-06-27T08:18:11.979Z,34.77
2023-06-27T08:19:05.590Z,34.95
2023-06-27T08:20:05.579Z,35.16
2023-06-27T08:21:05.684Z,35.50
2023-06-27T08:22:05.619Z,35.75
2023-06-27T08:23:05.567Z,35.99
2023-06-27T08:24:11.748Z,36.18
2023-06-27T08:25:04.566Z,36.37
2023-06-27T08:26:05.583Z,36.55
2023-06-27T08:27:04.582Z,36.65
2023-06-27T08:28:06.483Z,36.30
2023-06-27T08:29:05.469Z,36.01
2023-06-27T08:30:11.786Z,35.79
2023-06-27T08:31:05.643Z,35.62
2023-06-27T08:32:05.465Z,35.45
2023-06-27T08:33:05.543Z,35.29
2023-06-27T08:34:05.411Z,35.08
2023-06-27T08:35:11.644Z,34.86
2023-06-27T08:36:05.486Z,34.56
2023-06-27T08:37:05.505Z,34.31
2023-06-27T08:38:05.352Z,34.35
2023-06-27T08:39:05.349Z,34.57
2023-06-27T08:40:05.398Z,34.77
2023-06-27T08:41:11.606Z,35.00
2023-06-27T08:42:05.322Z,35.21
2023-06-27T08:43:05.326Z,35.42
2023-06-27T08:44:05.302Z,35.56
2023-06-27T08:45:05.286Z,35.70
2023-06-27T08:46:05.228Z,35.80
2023-06-27T08:47:10.551Z,35.87
2023-06-27T08:48:04.367Z,35.94
2023-06-27T08:49:05.532Z,35.97
2023-06-27T08:50:05.374Z,36.01
2023-06-27T08:51:05.218Z,36.05
2023-06-27T08:52:11.447Z,35.99
2023-06-27T08:53:05.179Z,35.98
2023-06-27T08:54:05.170Z,35.91
2023-06-27T08:56:01.654Z,35.09
2023-06-27T08:57:09.781Z,35.44
2023-06-27T08:58:01.608Z,35.03
2023-06-27T08:59:01.702Z,35.25
2023-06-27T09:00:01.600Z,35.55
2023-06-27T09:01:01.749Z,35.73
2023-06-27T09:02:08.794Z,35.85
2023-06-27T09:03:01.615Z,35.85
2023-06-27T09:04:01.614Z,35.36
2023-06-27T09:05:01.630Z,34.92
2023-06-27T09:06:01.541Z,34.57
2023-06-27T09:07:01.563Z,34.21
2023-06-27T09:08:08.679Z,34.00
2023-06-27T09:09:01.513Z,33.75
2023-06-27T09:10:01.520Z,33.66
2023-06-27T09:11:01.462Z,33.74
2023-06-27T09:12:01.437Z,34.01
2023-06-27T09:13:01.458Z,34.44
2023-06-27T09:14:08.843Z,34.91
2023-06-27T09:15:01.502Z,35.29
2023-06-27T09:16:01.480Z,35.52
2023-06-27T09:17:01.436Z,35.76
2023-06-27T09:18:01.394Z,36.11
2023-06-27T09:19:07.670Z,36.41
2023-06-27T09:20:01.367Z,36.76
2023-06-27T09:21:01.332Z,37.15
2023-06-27T09:22:01.381Z,37.53
2023-06-27T09:23:01.344Z,37.84
2023-06-27T09:24:08.559Z,38.13
2023-06-27T09:25:01.305Z,38.37
2023-06-27T09:26:01.263Z,38.58
2023-06-27T09:27:01.359Z,38.76
2023-06-27T09:28:01.241Z,38.89
2023-06-27T09:29:01.279Z,38.99
2023-06-27T09:30:08.446Z,39.09
2023-06-27T09:31:01.286Z,39.11
2023-06-27T09:32:01.247Z,39.06
2023-06-27T09:33:01.350Z,38.96
2023-06-27T09:34:03.223Z,38.82
2023-06-27T09:35:09.494Z,38.56
2023-06-27T09:36:02.936Z,38.37
2023-06-27T09:39:01.096Z,37.96
2023-06-27T09:40:01.108Z,37.42
2023-06-27T09:41:08.283Z,36.92
2023-06-27T09:42:01.073Z,36.52
2023-06-27T09:43:01.173Z,36.23
2023-06-27T09:44:02.962Z,35.97
2023-06-27T09:45:01.749Z,35.75
2023-06-27T09:46:01.026Z,35.53
2023-06-27T09:47:08.251Z,35.30
2023-06-27T09:48:01.055Z,35.08
2023-06-27T09:49:00.985Z,34.86
2023-06-27T09:50:00.958Z,34.65
2023-06-27T09:51:00.934Z,34.51
2023-06-27T09:52:00.979Z,34.37
2023-06-27T09:53:07.256Z,34.24
2023-06-27T09:54:00.937Z,34.07
2023-06-27T09:55:00.909Z,33.91
2023-06-27T09:56:00.872Z,33.75
2023-06-27T09:57:01.155Z,33.62
2023-06-27T09:58:02.588Z,33.44
2023-06-27T10:00:00.850Z,33.09
2023-06-27T10:01:00.827Z,32.90
2023-06-27T10:02:00.828Z,32.85
2023-06-27T10:03:00.830Z,33.19
2023-06-27T10:04:00.839Z,33.65
2023-06-27T10:05:09.050Z,33.87
2023-06-27T10:06:08.986Z,33.41
2023-06-27T10:07:02.271Z,33.65
2023-06-27T10:08:00.759Z,33.57
2023-06-27T10:09:00.734Z,33.61
2023-06-27T10:10:00.727Z,33.77
2023-06-27T10:11:10.082Z,33.93
2023-06-27T10:12:00.676Z,34.04
2023-06-27T10:13:00.708Z,34.52
2023-06-27T10:14:00.681Z,34.99
2023-06-27T10:15:00.715Z,35.40
2023-06-27T10:16:00.656Z,35.77
2023-06-27T10:17:08.963Z,36.04
2023-06-27T10:18:01.588Z,36.24
2023-06-27T10:19:00.600Z,36.35
2023-06-27T10:20:00.573Z,36.46
2023-06-27T10:21:00.658Z,36.57
2023-06-27T10:22:00.548Z,36.67
2023-06-27T10:23:07.770Z,36.77
2023-06-27T10:24:00.561Z,36.86
2023-06-27T10:25:00.557Z,36.96
2023-06-27T10:26:00.577Z,37.03
2023-06-27T10:27:01.033Z,37.14
2023-06-27T10:28:00.524Z,37.24
2023-06-27T10:29:10.112Z,37.32
2023-06-27T10:30:00.451Z,37.33
2023-06-27T10:31:00.437Z,37.19
2023-06-27T10:32:00.413Z,36.89
2023-06-27T10:33:00.549Z,36.50
2023-06-27T10:34:00.398Z,35.91
2023-06-27T10:35:07.590Z,34.80
2023-06-27T10:36:00.746Z,33.80
2023-06-27T10:37:00.373Z,33.62
2023-06-27T10:38:00.376Z,34.31
2023-06-27T10:39:00.944Z,34.94
2023-06-27T10:40:07.504Z,35.37
2023-06-27T10:41:00.297Z,35.66
2023-06-27T10:42:01.903Z,35.91
2023-06-27T10:43:00.260Z,36.18
2023-06-27T10:44:00.289Z,36.55
2023-06-27T10:45:07.472Z,36.93
2023-06-27T10:46:00.237Z,37.30
2023-06-27T10:47:00.887Z,37.67
2023-06-27T10:48:00.303Z,38.00
2023-06-27T10:49:00.273Z,38.26
2023-06-27T10:50:06.433Z,38.50
2023-06-27T10:51:00.191Z,38.65
2023-06-27T10:52:00.157Z,38.74
2023-06-27T10:53:00.206Z,38.74
2023-06-27T10:54:00.170Z,38.68
2023-06-27T10:55:07.323Z,38.58
2023-06-27T10:56:00.111Z,38.51
2023-06-27T10:57:00.088Z,38.46
2023-06-27T10:58:00.128Z,38.37
2023-06-27T10:59:00.060Z,38.28
2023-06-27T11:00:00.083Z,38.12
2023-06-27T11:01:07.294Z,37.88
2023-06-27T11:02:00.134Z,37.58
2023-06-27T11:03:00.230Z,37.02
2023-06-27T11:04:00.190Z,36.03
2023-06-27T11:05:00.117Z,34.69
2023-06-27T11:06:08.780Z,33.13
2023-06-27T11:06:59.997Z,30.75
2023-06-27T11:08:00.010Z,27.96
2023-06-27T11:08:59.954Z,25.45
2023-06-27T11:09:59.945Z,24.26
2023-06-27T11:10:59.942Z,23.76
2023-06-27T11:12:06.143Z,20.95
2023-06-27T11:12:59.875Z,18.01
2023-06-27T11:13:59.915Z,16.03
2023-06-27T11:14:59.861Z,14.79
2023-06-27T11:15:59.871Z,13.99
2023-06-27T11:17:06.132Z,13.43
2023-06-27T11:17:59.889Z,12.98
2023-06-27T11:18:59.826Z,12.67
2023-06-27T11:19:59.865Z,12.48
2023-06-27T11:20:59.836Z,12.46
2023-06-27T11:22:06.016Z,12.34
2023-06-27T11:22:59.775Z,12.28
2023-06-27T11:23:59.765Z,12.27
2023-06-27T11:24:59.733Z,12.28
2023-06-27T11:25:59.701Z,12.37
2023-06-27T11:27:06.033Z,12.47
2023-06-27T11:27:59.695Z,12.68
2023-06-27T11:28:59.693Z,13.04
2023-06-27T11:29:59.682Z,13.74
2023-06-27T11:30:59.695Z,14.84
2023-06-27T11:31:59.767Z,16.04
2023-06-27T11:33:05.946Z,17.18
2023-06-27T11:33:59.639Z,18.29
2023-06-27T11:35:00.588Z,19.32
2023-06-27T11:35:59.613Z,20.34
2023-06-27T11:36:59.624Z,21.31
2023-06-27T11:37:59.980Z,22.17
2023-06-27T11:39:05.821Z,22.85
2023-06-27T11:39:59.540Z,23.38
2023-06-27T11:40:59.602Z,23.75
2023-06-27T11:41:59.530Z,24.03
2023-06-27T11:42:59.561Z,24.60
2023-06-27T11:44:05.804Z,24.72
2023-06-27T11:44:59.501Z,24.94
2023-06-27T11:45:59.494Z,24.92
2023-06-27T11:46:59.479Z,24.88
2023-06-27T11:47:59.474Z,24.94
2023-06-27T11:48:59.519Z,24.85
2023-06-27T11:50:05.679Z,24.79
2023-06-27T11:50:59.472Z,24.75
2023-06-27T11:51:59.559Z,24.81
2023-06-27T11:52:59.402Z,25.02
2023-06-27T11:53:59.383Z,25.58
2023-06-27T11:54:59.361Z,25.79
2023-06-27T11:56:20.396Z,25.58
2023-06-27T11:57:00.855Z,25.30
2023-06-27T11:57:59.322Z,25.28
2023-06-27T11:58:59.323Z,25.32
2023-06-27T11:59:59.337Z,25.37
2023-06-27T12:00:59.324Z,25.44
2023-06-27T12:02:05.523Z,25.51
2023-06-27T12:02:59.337Z,25.62
2023-06-27T12:03:59.301Z,25.75
2023-06-27T12:04:59.312Z,25.85
2023-06-27T12:05:59.332Z,25.93
2023-06-27T12:06:59.281Z,26.00
2023-06-27T12:08:05.464Z,26.02
2023-06-27T12:08:59.214Z,25.95
2023-06-27T12:09:59.194Z,26.05
2023-06-27T12:10:59.253Z,27.75
2023-06-27T12:11:59.202Z,27.82
2023-06-27T12:12:59.125Z,28.09
2023-06-27T12:14:05.469Z,28.74
2023-06-27T12:14:59.123Z,30.34
2023-06-27T12:15:59.123Z,31.84
2023-06-27T12:16:59.096Z,33.18
2023-06-27T12:17:59.170Z,34.35
2023-06-27T12:18:59.066Z,35.31
2023-06-27T12:20:05.297Z,36.21
2023-06-27T12:20:59.036Z,37.08
2023-06-27T12:21:59.067Z,37.79
2023-06-27T12:22:59.074Z,38.57
2023-06-27T12:24:00.515Z,39.25
2023-06-27T12:24:59.013Z,39.80
2023-06-27T12:26:05.242Z,40.28
2023-06-27T12:26:59.031Z,40.65
2023-06-27T12:27:58.945Z,40.93
2023-06-27T12:28:58.949Z,41.17
2023-06-27T12:29:58.950Z,41.29
2023-06-27T12:31:05.239Z,41.35
2023-06-27T12:31:58.889Z,41.35
2023-06-27T12:32:58.937Z,41.31
2023-06-27T12:33:58.890Z,41.25
2023-06-27T12:34:58.872Z,41.16
2023-06-27T12:35:58.841Z,41.06
2023-06-27T12:37:05.093Z,40.96
2023-06-27T12:37:58.851Z,40.81
2023-06-27T12:38:58.833Z,40.66
2023-06-27T12:39:58.804Z,40.49
2023-06-27T12:40:58.805Z,40.31
2023-06-27T12:42:05.080Z,40.17
2023-06-27T12:42:58.813Z,40.03
2023-06-27T12:43:58.937Z,39.87
2023-06-27T12:44:58.802Z,39.70
2023-06-27T12:45:58.701Z,39.47
2023-06-27T12:47:06.165Z,39.24
2023-06-27T12:47:58.754Z,39.01
2023-06-27T12:48:58.725Z,38.79
2023-06-27T12:49:58.676Z,38.60
2023-06-27T12:50:58.674Z,38.42
2023-06-27T12:51:58.685Z,38.18
2023-06-27T12:53:04.910Z,37.93
2023-06-27T12:53:58.624Z,37.69
2023-06-27T12:54:58.686Z,37.41
2023-06-27T12:55:58.608Z,37.15
2023-06-27T12:56:58.606Z,36.91